Hulbert, MI (49748)

10:48 PM EDT on August 04, 2015 (GMT -0400)
Luce County | | Change Station
CLOSE
Current Station
Airport
Location: Newberry,
Elevation: 869 ft
Nearby Weather Stations

Elev 869 ft 46.31 °N, 85.46 °W | Updated 14 minutes ago

Clear
Clear
51 °F
Feels Like 51 °F
N
5
Wind Variable Wind from West

Today
High -- | Low -- °F
--% Chance of Precip.
Yesterday
High -- | Low -- °F
Precip. -- in
6:25 AM 9:07 PM
Waning Gibbous, 72% visible
Pressure 30.00 in
Visibility 10.0 miles
Clouds Clear
Dew Point 47 °F
Humidity 87%
Rainfall 0.08 in
Snow Depth Not available.
UV 0 out of 12
Pollen 6.30 out of 12
Air Quality Not available.
Flu Activity Not available.
METAR KERY 050234Z AUTO 28004KT 10SM CLR 11/09 A3000 RMK AO2 T01050085

More Conditions Fewer Conditions

Pressure 30.00 in
Visibility 10.0 miles
Clouds Clear
Dew Point 47 °F
Humidity 87%
Rainfall 0.08 in
Snow Depth Not available.
UV 0 out of 12
Pollen 6.30 out of 12
Air Quality Not available.
Flu Activity Not available.
METAR KERY 050234Z AUTO 28004KT 10SM CLR 11/09 A3000 RMK AO2 T01050085

More Conditions Fewer Conditions

Nowcast | as of 10:00 PM EDT on August 4, 2015

At 11 PM...partly cloudy. Temperature 53. West winds 7 mph. At 1 am...partly cloudy. Temperature 51. Northwest winds 7 mph. At 5 am...partly cloudy. Temperature 50. Northwest winds 7 mph.

×

10-Day Weather Forecast

×

Almanac

Astronomy

Aug. 04, 2015 Rise Set
Actual Time
Civil Twilight
Nautical Twilight
Astronomical Twilight
Moon
Length of Visible Light
Length of Day
Tomorrow will be .
, % of the Moon is Illuminated

Today's Extremes

State Highs State Lows

Community

WunderPhotos

Upload Photos

1,844,089 photos uploaded!

WunderBlogs® & News

Nearby

Air Quality

  Air Quality AQ Index Pollutant
Not available.

Snow Depth

Station Depth Elevation

Earthquake Activity

City Distance Mag. Time & Date
Minimum magnitude displayed is 2.5.

Coastal Water Temperatures

Place Temperature

Stations

Nearby Weather Stations

Station Location Temp. Windchill Dew Point Humidity Wind Precip. Elev Updated Type